Maysville, Georgia
Current Conditions -  °F | °C
As of 1:55 AM on Thursday 23 Oct 2014 (Local Time) from K19A Reporting Station
Clear Clear  
Wind Chill: 46°   Ceiling: Unl
Heat Index: 46°   Visibility: 10mi
Dew Point: 43°   Wind: 0mph
Humidity: 87%   Direction: NA
Pressure: 30.1"   Gusts: NA
Location:  34.25°N, 83.56°W
Report Text: K19A 230555Z AUTO 00000KT 10SM CLR 08/06 A3010 RMK AO2
Loading
Personal Weather Stations






























Interactive Weather Map New forecast layout! Learn more

10-Day Weather Forecast

Advertisements
Track Severe Weather on mobile